sensor_id;sensor_type;location;lat;lon;timestamp;temperature;humidity
18008;DHT22;9129;50.870;4.312;2022-07-15T00:01:11;18.40;99.90
18008;DHT22;9129;50.870;4.312;2022-07-15T00:03:37;18.30;99.90
18008;DHT22;9129;50.870;4.312;2022-07-15T00:06:03;18.30;99.90
18008;DHT22;9129;50.870;4.312;2022-07-15T00:08:28;18.30;99.90
18008;DHT22;9129;50.870;4.312;2022-07-15T00:10:54;18.40;99.90
18008;DHT22;9129;50.870;4.312;2022-07-15T00:13:20;18.30;99.90
18008;DHT22;9129;50.870;4.312;2022-07-15T00:15:46;18.30;99.90
18008;DHT22;9129;50.870;4.312;2022-07-15T00:18:12;18.30;99.90
18008;DHT22;9129;50.870;4.312;2022-07-15T00:20:37;18.30;99.90
18008;DHT22;9129;50.870;4.312;2022-07-15T00:23:05;18.30;99.90
18008;DHT22;9129;50.870;4.312;2022-07-15T00:25:31;18.30;99.90
18008;DHT22;9129;50.870;4.312;2022-07-15T00:28:00;18.20;99.90
18008;DHT22;9129;50.870;4.312;2022-07-15T00:30:31;18.10;99.90
18008;DHT22;9129;50.870;4.312;2022-07-15T00:32:57;18.10;99.90
18008;DHT22;9129;50.870;4.312;2022-07-15T00:35:22;18.10;99.90
18008;DHT22;9129;50.870;4.312;2022-07-15T00:37:49;18.10;99.90
18008;DHT22;9129;50.870;4.312;2022-07-15T00:40:14;18.00;99.90
18008;DHT22;9129;50.870;4.312;2022-07-15T00:42:40;18.00;99.90
18008;DHT22;9129;50.870;4.312;2022-07-15T00:45:20;18.00;99.90
18008;DHT22;9129;50.870;4.312;2022-07-15T00:47:53;18.00;99.90
18008;DHT22;9129;50.870;4.312;2022-07-15T00:50:20;18.00;99.90
18008;DHT22;9129;50.870;4.312;2022-07-15T00:53:07;18.00;99.90
18008;DHT22;9129;50.870;4.312;2022-07-15T00:55:39;17.90;99.90
18008;DHT22;9129;50.870;4.312;2022-07-15T00:58:07;17.90;99.90
18008;DHT22;9129;50.870;4.312;2022-07-15T01:00:33;17.90;99.90
18008;DHT22;9129;50.870;4.312;2022-07-15T01:03:00;17.80;99.90
18008;DHT22;9129;50.870;4.312;2022-07-15T01:05:26;17.80;99.90
18008;DHT22;9129;50.870;4.312;2022-07-15T01:07:52;17.70;99.90
18008;DHT22;9129;50.870;4.312;2022-07-15T01:10:20;17.80;99.90
18008;DHT22;9129;50.870;4.312;2022-07-15T01:12:47;17.80;99.90
18008;DHT22;9129;50.870;4.312;2022-07-15T01:15:14;17.70;99.90
18008;DHT22;9129;50.870;4.312;2022-07-15T01:17:40;17.70;99.90
18008;DHT22;9129;50.870;4.312;2022-07-15T01:20:07;17.60;99.90
18008;DHT22;9129;50.870;4.312;2022-07-15T01:22:33;17.60;99.90
18008;DHT22;9129;50.870;4.312;2022-07-15T01:24:59;17.60;99.90
18008;DHT22;9129;50.870;4.312;2022-07-15T01:27:26;17.50;99.90
18008;DHT22;9129;50.870;4.312;2022-07-15T01:29:51;17.50;99.90
18008;DHT22;9129;50.870;4.312;2022-07-15T01:32:17;17.50;99.90
18008;DHT22;9129;50.870;4.312;2022-07-15T01:34:42;17.50;99.90
18008;DHT22;9129;50.870;4.312;2022-07-15T01:37:08;17.50;99.90
18008;DHT22;9129;50.870;4.312;2022-07-15T01:39:34;17.50;99.90
18008;DHT22;9129;50.870;4.312;2022-07-15T01:42:00;17.50;99.90
18008;DHT22;9129;50.870;4.312;2022-07-15T01:44:25;17.50;99.90
18008;DHT22;9129;50.870;4.312;2022-07-15T01:46:51;17.50;99.90
18008;DHT22;9129;50.870;4.312;2022-07-15T01:49:16;17.40;99.90
18008;DHT22;9129;50.870;4.312;2022-07-15T01:51:49;17.40;99.90
18008;DHT22;9129;50.870;4.312;2022-07-15T01:54:16;17.40;99.90
18008;DHT22;9129;50.870;4.312;2022-07-15T01:56:42;17.40;99.90
18008;DHT22;9129;50.870;4.312;2022-07-15T01:59:08;17.40;99.90
18008;DHT22;9129;50.870;4.312;2022-07-15T02:01:34;17.30;99.90
18008;DHT22;9129;50.870;4.312;2022-07-15T02:03:59;17.30;99.90
18008;DHT22;9129;50.870;4.312;2022-07-15T02:06:25;17.20;99.90
18008;DHT22;9129;50.870;4.312;2022-07-15T02:08:51;17.20;99.90
18008;DHT22;9129;50.870;4.312;2022-07-15T02:11:17;17.20;99.90
18008;DHT22;9129;50.870;4.312;2022-07-15T02:13:43;17.20;99.90
18008;DHT22;9129;50.870;4.312;2022-07-15T02:16:08;17.20;99.90
18008;DHT22;9129;50.870;4.312;2022-07-15T02:18:34;17.20;99.90
18008;DHT22;9129;50.870;4.312;2022-07-15T02:21:00;17.10;99.90
18008;DHT22;9129;50.870;4.312;2022-07-15T02:23:28;17.10;99.90
18008;DHT22;9129;50.870;4.312;2022-07-15T02:25:54;17.10;99.90
18008;DHT22;9129;50.870;4.312;2022-07-15T02:28:20;17.10;99.90
18008;DHT22;9129;50.870;4.312;2022-07-15T02:30:45;17.10;99.90
18008;DHT22;9129;50.870;4.312;2022-07-15T02:33:11;17.10;99.90
18008;DHT22;9129;50.870;4.312;2022-07-15T02:35:40;17.00;99.90
18008;DHT22;9129;50.870;4.312;2022-07-15T02:38:06;17.00;99.90
18008;DHT22;9129;50.870;4.312;2022-07-15T02:40:32;17.00;99.90
18008;DHT22;9129;50.870;4.312;2022-07-15T02:43:00;17.00;99.90
18008;DHT22;9129;50.870;4.312;2022-07-15T02:45:28;17.00;99.90
18008;DHT22;9129;50.870;4.312;2022-07-15T02:47:55;17.00;99.90
18008;DHT22;9129;50.870;4.312;2022-07-15T02:50:21;17.00;99.90
18008;DHT22;9129;50.870;4.312;2022-07-15T02:52:47;17.00;99.90
18008;DHT22;9129;50.870;4.312;2022-07-15T02:55:13;17.00;99.90
18008;DHT22;9129;50.870;4.312;2022-07-15T02:57:39;17.00;99.90
18008;DHT22;9129;50.870;4.312;2022-07-15T03:00:08;16.90;99.90
18008;DHT22;9129;50.870;4.312;2022-07-15T03:02:37;16.90;99.90
18008;DHT22;9129;50.870;4.312;2022-07-15T03:05:04;16.90;99.90
18008;DHT22;9129;50.870;4.312;2022-07-15T03:07:29;16.90;99.90
18008;DHT22;9129;50.870;4.312;2022-07-15T03:09:55;16.80;99.90
18008;DHT22;9129;50.870;4.312;2022-07-15T03:12:21;16.70;99.90
18008;DHT22;9129;50.870;4.312;2022-07-15T03:14:47;16.70;99.90
18008;DHT22;9129;50.870;4.312;2022-07-15T03:17:12;16.70;99.90
18008;DHT22;9129;50.870;4.312;2022-07-15T03:19:38;16.70;99.90
18008;DHT22;9129;50.870;4.312;2022-07-15T03:22:05;16.60;99.90
18008;DHT22;9129;50.870;4.312;2022-07-15T03:24:31;16.70;99.90
18008;DHT22;9129;50.870;4.312;2022-07-15T03:26:57;16.70;99.90
18008;DHT22;9129;50.870;4.312;2022-07-15T03:29:22;16.60;99.90
18008;DHT22;9129;50.870;4.312;2022-07-15T03:31:48;16.60;99.90
18008;DHT22;9129;50.870;4.312;2022-07-15T03:34:13;16.70;99.90
18008;DHT22;9129;50.870;4.312;2022-07-15T03:36:40;16.70;99.90
18008;DHT22;9129;50.870;4.312;2022-07-15T03:39:06;16.70;99.90
18008;DHT22;9129;50.870;4.312;2022-07-15T03:41:33;16.60;99.90
18008;DHT22;9129;50.870;4.312;2022-07-15T03:44:02;16.60;99.90
18008;DHT22;9129;50.870;4.312;2022-07-15T03:46:28;16.60;99.90
18008;DHT22;9129;50.870;4.312;2022-07-15T03:48:55;16.60;99.90
18008;DHT22;9129;50.870;4.312;2022-07-15T03:51:21;16.60;99.90
18008;DHT22;9129;50.870;4.312;2022-07-15T03:53:49;16.60;99.90
18008;DHT22;9129;50.870;4.312;2022-07-15T03:56:15;16.60;99.90
18008;DHT22;9129;50.870;4.312;2022-07-15T03:58:41;16.70;99.90
18008;DHT22;9129;50.870;4.312;2022-07-15T04:01:06;16.60;99.90
18008;DHT22;9129;50.870;4.312;2022-07-15T04:03:32;16.60;99.90
18008;DHT22;9129;50.870;4.312;2022-07-15T04:05:59;16.60;99.90
18008;DHT22;9129;50.870;4.312;2022-07-15T04:08:24;16.70;99.90
18008;DHT22;9129;50.870;4.312;2022-07-15T04:10:50;16.70;99.90
18008;DHT22;9129;50.870;4.312;2022-07-15T04:13:16;16.80;99.90
18008;DHT22;9129;50.870;4.312;2022-07-15T04:15:45;16.80;99.90
18008;DHT22;9129;50.870;4.312;2022-07-15T04:18:11;16.80;99.90
18008;DHT22;9129;50.870;4.312;2022-07-15T04:20:37;16.70;99.90
18008;DHT22;9129;50.870;4.312;2022-07-15T04:23:02;16.80;99.90
18008;DHT22;9129;50.870;4.312;2022-07-15T04:25:28;16.80;99.90
18008;DHT22;9129;50.870;4.312;2022-07-15T04:27:54;16.80;99.90
18008;DHT22;9129;50.870;4.312;2022-07-15T04:30:19;16.80;99.90
18008;DHT22;9129;50.870;4.312;2022-07-15T04:32:45;16.90;99.90
18008;DHT22;9129;50.870;4.312;2022-07-15T04:35:11;16.90;99.90
18008;DHT22;9129;50.870;4.312;2022-07-15T04:37:36;16.90;99.90
18008;DHT22;9129;50.870;4.312;2022-07-15T04:40:03;16.90;99.90
18008;DHT22;9129;50.870;4.312;2022-07-15T04:42:28;16.90;99.90
18008;DHT22;9129;50.870;4.312;2022-07-15T04:44:54;16.90;99.90
18008;DHT22;9129;50.870;4.312;2022-07-15T04:47:20;17.00;99.90
18008;DHT22;9129;50.870;4.312;2022-07-15T04:49:45;17.00;99.90
18008;DHT22;9129;50.870;4.312;2022-07-15T04:52:29;17.10;99.90
18008;DHT22;9129;50.870;4.312;2022-07-15T04:54:56;17.20;99.90
18008;DHT22;9129;50.870;4.312;2022-07-15T04:57:22;17.30;99.90
18008;DHT22;9129;50.870;4.312;2022-07-15T04:59:48;17.30;99.90
18008;DHT22;9129;50.870;4.312;2022-07-15T05:02:14;17.30;99.90
18008;DHT22;9129;50.870;4.312;2022-07-15T05:04:40;17.40;99.90
18008;DHT22;9129;50.870;4.312;2022-07-15T05:07:06;17.50;99.90
18008;DHT22;9129;50.870;4.312;2022-07-15T05:09:33;17.50;99.90
18008;DHT22;9129;50.870;4.312;2022-07-15T05:11:58;17.50;99.90
18008;DHT22;9129;50.870;4.312;2022-07-15T05:14:24;17.60;99.90
18008;DHT22;9129;50.870;4.312;2022-07-15T05:16:50;17.70;99.90
18008;DHT22;9129;50.870;4.312;2022-07-15T05:19:16;17.70;99.90
18008;DHT22;9129;50.870;4.312;2022-07-15T05:21:42;17.60;99.90
18008;DHT22;9129;50.870;4.312;2022-07-15T05:24:07;17.60;99.90
18008;DHT22;9129;50.870;4.312;2022-07-15T05:26:33;17.60;99.90
18008;DHT22;9129;50.870;4.312;2022-07-15T05:28:59;17.60;99.90
18008;DHT22;9129;50.870;4.312;2022-07-15T05:31:25;17.60;99.90
18008;DHT22;9129;50.870;4.312;2022-07-15T05:33:51;17.70;99.90
18008;DHT22;9129;50.870;4.312;2022-07-15T05:36:18;17.70;99.90
18008;DHT22;9129;50.870;4.312;2022-07-15T05:38:45;17.70;99.90
18008;DHT22;9129;50.870;4.312;2022-07-15T05:41:11;17.80;99.90
18008;DHT22;9129;50.870;4.312;2022-07-15T05:43:37;17.80;99.90
18008;DHT22;9129;50.870;4.312;2022-07-15T05:46:03;17.90;99.90
18008;DHT22;9129;50.870;4.312;2022-07-15T05:48:29;17.80;99.90
18008;DHT22;9129;50.870;4.312;2022-07-15T05:50:55;17.80;99.90
18008;DHT22;9129;50.870;4.312;2022-07-15T05:53:21;17.90;99.90
18008;DHT22;9129;50.870;4.312;2022-07-15T05:55:47;17.90;99.90
18008;DHT22;9129;50.870;4.312;2022-07-15T05:58:13;18.00;99.90
18008;DHT22;9129;50.870;4.312;2022-07-15T06:00:38;18.10;99.90
18008;DHT22;9129;50.870;4.312;2022-07-15T06:03:05;18.20;99.90
18008;DHT22;9129;50.870;4.312;2022-07-15T06:05:31;18.20;99.90
18008;DHT22;9129;50.870;4.312;2022-07-15T06:07:57;18.20;99.90
18008;DHT22;9129;50.870;4.312;2022-07-15T06:10:23;18.20;99.90
18008;DHT22;9129;50.870;4.312;2022-07-15T06:12:49;18.20;99.90
18008;DHT22;9129;50.870;4.312;2022-07-15T06:15:15;18.30;99.90
18008;DHT22;9129;50.870;4.312;2022-07-15T06:17:40;18.30;99.90
18008;DHT22;9129;50.870;4.312;2022-07-15T06:20:07;18.40;99.90
18008;DHT22;9129;50.870;4.312;2022-07-15T06:22:33;18.40;99.90
18008;DHT22;9129;50.870;4.312;2022-07-15T06:24:59;18.60;99.90
18008;DHT22;9129;50.870;4.312;2022-07-15T06:27:25;18.70;99.90
18008;DHT22;9129;50.870;4.312;2022-07-15T06:29:51;18.70;99.90
18008;DHT22;9129;50.870;4.312;2022-07-15T06:32:18;18.80;99.90
18008;DHT22;9129;50.870;4.312;2022-07-15T06:34:44;19.00;99.90
18008;DHT22;9129;50.870;4.312;2022-07-15T06:37:10;19.00;99.90
18008;DHT22;9129;50.870;4.312;2022-07-15T06:39:35;19.10;99.90
18008;DHT22;9129;50.870;4.312;2022-07-15T06:42:01;19.20;99.90
18008;DHT22;9129;50.870;4.312;2022-07-15T06:44:27;19.40;99.90
18008;DHT22;9129;50.870;4.312;2022-07-15T06:46:53;19.60;99.90
18008;DHT22;9129;50.870;4.312;2022-07-15T06:49:19;19.70;99.90
18008;DHT22;9129;50.870;4.312;2022-07-15T06:51:44;19.90;99.90
18008;DHT22;9129;50.870;4.312;2022-07-15T06:54:10;20.00;99.90
18008;DHT22;9129;50.870;4.312;2022-07-15T06:56:37;20.10;99.90
18008;DHT22;9129;50.870;4.312;2022-07-15T06:59:03;20.50;99.90
18008;DHT22;9129;50.870;4.312;2022-07-15T07:01:29;20.70;99.90
18008;DHT22;9129;50.870;4.312;2022-07-15T07:03:55;20.80;99.90
18008;DHT22;9129;50.870;4.312;2022-07-15T07:06:21;20.90;99.90
18008;DHT22;9129;50.870;4.312;2022-07-15T07:08:46;20.70;99.90
18008;DHT22;9129;50.870;4.312;2022-07-15T07:11:13;20.70;99.90
18008;DHT22;9129;50.870;4.312;2022-07-15T07:13:39;20.90;99.90
18008;DHT22;9129;50.870;4.312;2022-07-15T07:16:05;21.10;99.90
18008;DHT22;9129;50.870;4.312;2022-07-15T07:18:32;21.20;99.90
18008;DHT22;9129;50.870;4.312;2022-07-15T07:20:58;21.30;99.90
18008;DHT22;9129;50.870;4.312;2022-07-15T07:23:24;21.50;99.90
18008;DHT22;9129;50.870;4.312;2022-07-15T07:25:52;22.30;99.90
18008;DHT22;9129;50.870;4.312;2022-07-15T07:28:18;23.50;99.90
18008;DHT22;9129;50.870;4.312;2022-07-15T07:30:44;25.00;99.90
18008;DHT22;9129;50.870;4.312;2022-07-15T07:33:11;26.20;99.90
18008;DHT22;9129;50.870;4.312;2022-07-15T07:35:37;26.40;99.90
18008;DHT22;9129;50.870;4.312;2022-07-15T07:38:03;26.10;99.90
18008;DHT22;9129;50.870;4.312;2022-07-15T07:40:29;26.30;99.90
18008;DHT22;9129;50.870;4.312;2022-07-15T07:42:55;27.70;99.90
18008;DHT22;9129;50.870;4.312;2022-07-15T07:45:24;29.60;97.20
18008;DHT22;9129;50.870;4.312;2022-07-15T07:47:50;31.20;93.90
18008;DHT22;9129;50.870;4.312;2022-07-15T07:50:17;31.70;91.20
18008;DHT22;9129;50.870;4.312;2022-07-15T07:52:43;31.50;89.50
18008;DHT22;9129;50.870;4.312;2022-07-15T07:55:09;31.10;90.30
18008;DHT22;9129;50.870;4.312;2022-07-15T07:57:55;31.00;89.80
18008;DHT22;9129;50.870;4.312;2022-07-15T08:00:22;30.30;90.10
18008;DHT22;9129;50.870;4.312;2022-07-15T08:02:48;29.10;91.10
18008;DHT22;9129;50.870;4.312;2022-07-15T08:05:15;27.90;92.90
18008;DHT22;9129;50.870;4.312;2022-07-15T08:07:41;26.90;94.70
18008;DHT22;9129;50.870;4.312;2022-07-15T08:10:08;26.00;96.80
18008;DHT22;9129;50.870;4.312;2022-07-15T08:12:34;25.40;97.70
18008;DHT22;9129;50.870;4.312;2022-07-15T08:15:00;25.90;98.50
18008;DHT22;9129;50.870;4.312;2022-07-15T08:17:26;27.00;96.20
18008;DHT22;9129;50.870;4.312;2022-07-15T08:19:51;29.00;94.40
18008;DHT22;9129;50.870;4.312;2022-07-15T08:22:17;31.30;90.80
18008;DHT22;9129;50.870;4.312;2022-07-15T08:24:43;33.70;83.60
18008;DHT22;9129;50.870;4.312;2022-07-15T08:27:08;35.20;99.90
18008;DHT22;9129;50.870;4.312;2022-07-15T08:29:34;36.40;92.80
18008;DHT22;9129;50.870;4.312;2022-07-15T08:32:00;37.30;78.70
18008;DHT22;9129;50.870;4.312;2022-07-15T08:34:26;37.90;65.50
18008;DHT22;9129;50.870;4.312;2022-07-15T08:36:52;38.20;62.50
18008;DHT22;9129;50.870;4.312;2022-07-15T08:39:17;39.20;63.40
18008;DHT22;9129;50.870;4.312;2022-07-15T08:44:10;39.70;84.90
18008;DHT22;9129;50.870;4.312;2022-07-15T08:46:36;39.70;57.00
18008;DHT22;9129;50.870;4.312;2022-07-15T08:49:06;39.90;56.70
18008;DHT22;9129;50.870;4.312;2022-07-15T08:51:36;40.30;59.20
18008;DHT22;9129;50.870;4.312;2022-07-15T08:54:05;40.30;58.20
18008;DHT22;9129;50.870;4.312;2022-07-15T08:56:34;40.30;56.90
18008;DHT22;9129;50.870;4.312;2022-07-15T08:59:02;40.50;65.70
18008;DHT22;9129;50.870;4.312;2022-07-15T09:01:29;40.30;54.30
18008;DHT22;9129;50.870;4.312;2022-07-15T09:03:56;40.10;53.80
18008;DHT22;9129;50.870;4.312;2022-07-15T09:06:44;40.10;54.20
18008;DHT22;9129;50.870;4.312;2022-07-15T09:09:29;40.60;53.30
18008;DHT22;9129;50.870;4.312;2022-07-15T09:12:04;40.50;52.50
18008;DHT22;9129;50.870;4.312;2022-07-15T09:14:32;40.50;52.10
18008;DHT22;9129;50.870;4.312;2022-07-15T09:20:07;40.80;50.50
18008;DHT22;9129;50.870;4.312;2022-07-15T09:22:51;39.60;50.80
18008;DHT22;9129;50.870;4.312;2022-07-15T09:25:17;39.50;51.90
18008;DHT22;9129;50.870;4.312;2022-07-15T09:27:44;38.70;53.00
18008;DHT22;9129;50.870;4.312;2022-07-15T09:30:40;37.80;54.10
18008;DHT22;9129;50.870;4.312;2022-07-15T09:33:30;37.00;56.00
18008;DHT22;9129;50.870;4.312;2022-07-15T09:36:25;35.30;55.90
18008;DHT22;9129;50.870;4.312;2022-07-15T09:41:37;33.00;59.00
18008;DHT22;9129;50.870;4.312;2022-07-15T09:49:10;29.60;66.30
18008;DHT22;9129;50.870;4.312;2022-07-15T09:51:48;29.20;67.90
18008;DHT22;9129;50.870;4.312;2022-07-15T09:54:14;28.70;68.60
18008;DHT22;9129;50.870;4.312;2022-07-15T09:56:39;28.60;70.30
18008;DHT22;9129;50.870;4.312;2022-07-15T09:59:06;28.70;68.60
18008;DHT22;9129;50.870;4.312;2022-07-15T10:01:32;28.60;68.50
18008;DHT22;9129;50.870;4.312;2022-07-15T10:03:59;28.60;70.20
18008;DHT22;9129;50.870;4.312;2022-07-15T10:06:26;28.60;70.10
18008;DHT22;9129;50.870;4.312;2022-07-15T10:08:53;28.40;70.50
18008;DHT22;9129;50.870;4.312;2022-07-15T10:11:20;28.20;70.60
18008;DHT22;9129;50.870;4.312;2022-07-15T10:20:14;27.90;71.90
18008;DHT22;9129;50.870;4.312;2022-07-15T10:22:47;27.40;73.40
18008;DHT22;9129;50.870;4.312;2022-07-15T10:25:36;27.60;74.10
18008;DHT22;9129;50.870;4.312;2022-07-15T10:28:17;27.80;74.00
18008;DHT22;9129;50.870;4.312;2022-07-15T10:30:43;28.10;75.30
18008;DHT22;9129;50.870;4.312;2022-07-15T10:33:18;28.20;73.10
18008;DHT22;9129;50.870;4.312;2022-07-15T10:35:52;28.20;70.80
18008;DHT22;9129;50.870;4.312;2022-07-15T10:41:01;27.80;68.10
18008;DHT22;9129;50.870;4.312;2022-07-15T10:46:17;27.40;73.40
18008;DHT22;9129;50.870;4.312;2022-07-15T10:54:03;27.30;77.00
18008;DHT22;9129;50.870;4.312;2022-07-15T10:56:43;27.50;73.10
18008;DHT22;9129;50.870;4.312;2022-07-15T10:59:12;27.60;74.50
18008;DHT22;9129;50.870;4.312;2022-07-15T11:01:46;27.80;74.40
18008;DHT22;9129;50.870;4.312;2022-07-15T11:04:23;28.00;72.90
18008;DHT22;9129;50.870;4.312;2022-07-15T11:12:23;28.20;72.20
18008;DHT22;9129;50.870;4.312;2022-07-15T11:19:53;28.10;72.40
18008;DHT22;9129;50.870;4.312;2022-07-15T11:22:20;28.10;73.50
18008;DHT22;9129;50.870;4.312;2022-07-15T11:24:46;28.30;74.10
18008;DHT22;9129;50.870;4.312;2022-07-15T11:27:12;28.50;72.70
18008;DHT22;9129;50.870;4.312;2022-07-15T11:29:49;28.30;70.90
18008;DHT22;9129;50.870;4.312;2022-07-15T11:32:17;28.10;71.90
18008;DHT22;9129;50.870;4.312;2022-07-15T11:34:51;28.10;73.20
18008;DHT22;9129;50.870;4.312;2022-07-15T11:37:18;28.20;73.10
18008;DHT22;9129;50.870;4.312;2022-07-15T11:39:49;28.10;71.50
18008;DHT22;9129;50.870;4.312;2022-07-15T11:42:22;27.90;69.80
18008;DHT22;9129;50.870;4.312;2022-07-15T11:45:08;27.90;71.40
18008;DHT22;9129;50.870;4.312;2022-07-15T11:47:34;27.90;72.20
18008;DHT22;9129;50.870;4.312;2022-07-15T11:50:03;27.70;71.80
18008;DHT22;9129;50.870;4.312;2022-07-15T11:52:29;27.50;72.50
18008;DHT22;9129;50.870;4.312;2022-07-15T11:54:55;26.90;74.30
18008;DHT22;9129;50.870;4.312;2022-07-15T11:57:22;27.10;76.00
18008;DHT22;9129;50.870;4.312;2022-07-15T11:59:56;27.30;74.60
18008;DHT22;9129;50.870;4.312;2022-07-15T12:02:26;27.80;73.40
18008;DHT22;9129;50.870;4.312;2022-07-15T12:05:01;28.20;70.70
18008;DHT22;9129;50.870;4.312;2022-07-15T12:07:45;28.50;71.30
18008;DHT22;9129;50.870;4.312;2022-07-15T12:10:14;28.60;71.30
18008;DHT22;9129;50.870;4.312;2022-07-15T12:12:53;28.50;70.40
18008;DHT22;9129;50.870;4.312;2022-07-15T12:15:20;28.20;71.00
18008;DHT22;9129;50.870;4.312;2022-07-15T12:17:46;27.90;72.00
18008;DHT22;9129;50.870;4.312;2022-07-15T12:20:12;27.60;72.60
18008;DHT22;9129;50.870;4.312;2022-07-15T12:22:38;27.30;73.90
18008;DHT22;9129;50.870;4.312;2022-07-15T12:25:23;27.20;73.40
18008;DHT22;9129;50.870;4.312;2022-07-15T12:27:49;27.30;73.70
18008;DHT22;9129;50.870;4.312;2022-07-15T12:30:14;27.40;73.30
18008;DHT22;9129;50.870;4.312;2022-07-15T12:32:40;27.60;74.40
18008;DHT22;9129;50.870;4.312;2022-07-15T12:35:06;27.80;71.30
18008;DHT22;9129;50.870;4.312;2022-07-15T12:40:12;27.30;73.70
18008;DHT22;9129;50.870;4.312;2022-07-15T12:42:42;27.20;72.50
18008;DHT22;9129;50.870;4.312;2022-07-15T12:45:14;27.00;73.30
18008;DHT22;9129;50.870;4.312;2022-07-15T12:47:59;26.70;73.00
18008;DHT22;9129;50.870;4.312;2022-07-15T12:50:25;26.80;73.40
18008;DHT22;9129;50.870;4.312;2022-07-15T12:52:54;27.10;76.00
18008;DHT22;9129;50.870;4.312;2022-07-15T12:55:23;27.50;75.50
18008;DHT22;9129;50.870;4.312;2022-07-15T12:57:49;27.60;73.20
18008;DHT22;9129;50.870;4.312;2022-07-15T13:00:19;27.70;73.00
18008;DHT22;9129;50.870;4.312;2022-07-15T13:03:07;27.60;73.40
18008;DHT22;9129;50.870;4.312;2022-07-15T13:05:36;27.80;70.00
18008;DHT22;9129;50.870;4.312;2022-07-15T13:08:12;27.60;69.80
18008;DHT22;9129;50.870;4.312;2022-07-15T13:10:39;27.70;72.40
18008;DHT22;9129;50.870;4.312;2022-07-15T13:13:07;27.80;74.10
18008;DHT22;9129;50.870;4.312;2022-07-15T13:15:33;27.70;72.40
18008;DHT22;9129;50.870;4.312;2022-07-15T13:17:59;27.60;72.40
18008;DHT22;9129;50.870;4.312;2022-07-15T13:20:25;27.70;72.30
18008;DHT22;9129;50.870;4.312;2022-07-15T13:22:51;27.80;72.70
18008;DHT22;9129;50.870;4.312;2022-07-15T13:25:17;27.80;72.60
18008;DHT22;9129;50.870;4.312;2022-07-15T13:27:43;28.00;71.30
18008;DHT22;9129;50.870;4.312;2022-07-15T13:30:09;28.00;70.90
18008;DHT22;9129;50.870;4.312;2022-07-15T13:32:35;28.20;70.30
18008;DHT22;9129;50.870;4.312;2022-07-15T13:35:01;28.20;70.80
18008;DHT22;9129;50.870;4.312;2022-07-15T13:37:27;28.20;70.70
18008;DHT22;9129;50.870;4.312;2022-07-15T13:39:52;28.20;73.70
18008;DHT22;9129;50.870;4.312;2022-07-15T13:42:18;28.20;70.60
18008;DHT22;9129;50.870;4.312;2022-07-15T13:44:44;28.00;72.10
18008;DHT22;9129;50.870;4.312;2022-07-15T13:47:10;28.10;71.10
18008;DHT22;9129;50.870;4.312;2022-07-15T13:49:35;28.30;71.80
18008;DHT22;9129;50.870;4.312;2022-07-15T13:52:19;28.20;72.00
18008;DHT22;9129;50.870;4.312;2022-07-15T13:54:45;28.40;71.90
18008;DHT22;9129;50.870;4.312;2022-07-15T13:57:11;28.50;71.50
18008;DHT22;9129;50.870;4.312;2022-07-15T13:59:37;28.60;71.80
18008;DHT22;9129;50.870;4.312;2022-07-15T14:02:03;28.50;70.80
18008;DHT22;9129;50.870;4.312;2022-07-15T14:04:33;28.40;71.30
18008;DHT22;9129;50.870;4.312;2022-07-15T14:06:59;28.40;71.50
18008;DHT22;9129;50.870;4.312;2022-07-15T14:09:24;28.40;71.80
18008;DHT22;9129;50.870;4.312;2022-07-15T14:11:50;28.10;71.80
18008;DHT22;9129;50.870;4.312;2022-07-15T14:14:16;28.10;71.50
18008;DHT22;9129;50.870;4.312;2022-07-15T14:16:42;28.20;71.80
18008;DHT22;9129;50.870;4.312;2022-07-15T14:19:07;28.10;71.70
18008;DHT22;9129;50.870;4.312;2022-07-15T14:21:33;28.00;72.30
18008;DHT22;9129;50.870;4.312;2022-07-15T14:23:59;28.00;72.50
18008;DHT22;9129;50.870;4.312;2022-07-15T14:26:26;27.90;73.10
18008;DHT22;9129;50.870;4.312;2022-07-15T14:28:51;27.90;72.80
18008;DHT22;9129;50.870;4.312;2022-07-15T14:31:17;28.00;74.20
18008;DHT22;9129;50.870;4.312;2022-07-15T14:33:43;28.10;71.60
18008;DHT22;9129;50.870;4.312;2022-07-15T14:36:10;27.90;72.90
18008;DHT22;9129;50.870;4.312;2022-07-15T14:38:37;27.90;72.50
18008;DHT22;9129;50.870;4.312;2022-07-15T14:41:04;28.00;72.50
18008;DHT22;9129;50.870;4.312;2022-07-15T14:43:30;28.00;72.60
18008;DHT22;9129;50.870;4.312;2022-07-15T14:45:55;28.00;73.20
18008;DHT22;9129;50.870;4.312;2022-07-15T14:48:21;27.90;73.60
18008;DHT22;9129;50.870;4.312;2022-07-15T14:50:47;27.90;74.30
18008;DHT22;9129;50.870;4.312;2022-07-15T14:53:13;27.90;73.80
18008;DHT22;9129;50.870;4.312;2022-07-15T14:55:38;27.80;73.70
18008;DHT22;9129;50.870;4.312;2022-07-15T14:58:04;27.90;74.40
18008;DHT22;9129;50.870;4.312;2022-07-15T15:00:30;27.80;73.00
18008;DHT22;9129;50.870;4.312;2022-07-15T15:02:56;27.80;73.10
18008;DHT22;9129;50.870;4.312;2022-07-15T15:05:22;27.80;73.00
18008;DHT22;9129;50.870;4.312;2022-07-15T15:07:47;27.80;72.90
18008;DHT22;9129;50.870;4.312;2022-07-15T15:10:13;27.90;72.40
18008;DHT22;9129;50.870;4.312;2022-07-15T15:12:39;27.80;71.70
18008;DHT22;9129;50.870;4.312;2022-07-15T15:15:06;27.70;71.40
18008;DHT22;9129;50.870;4.312;2022-07-15T15:17:31;27.50;72.40
18008;DHT22;9129;50.870;4.312;2022-07-15T15:19:57;27.20;73.20
18008;DHT22;9129;50.870;4.312;2022-07-15T15:22:23;27.10;73.50
18008;DHT22;9129;50.870;4.312;2022-07-15T15:24:48;27.20;74.40
18008;DHT22;9129;50.870;4.312;2022-07-15T15:27:14;27.40;74.70
18008;DHT22;9129;50.870;4.312;2022-07-15T15:29:41;27.10;73.50
18008;DHT22;9129;50.870;4.312;2022-07-15T15:32:06;26.80;74.00
18008;DHT22;9129;50.870;4.312;2022-07-15T15:34:39;26.80;73.60
18008;DHT22;9129;50.870;4.312;2022-07-15T15:37:05;26.70;75.00
18008;DHT22;9129;50.870;4.312;2022-07-15T15:39:30;26.60;74.20
18008;DHT22;9129;50.870;4.312;2022-07-15T15:41:56;26.40;75.50
18008;DHT22;9129;50.870;4.312;2022-07-15T15:44:22;26.20;76.90
18008;DHT22;9129;50.870;4.312;2022-07-15T15:46:47;25.90;76.60
18008;DHT22;9129;50.870;4.312;2022-07-15T15:49:13;25.90;76.90
18008;DHT22;9129;50.870;4.312;2022-07-15T15:51:39;25.90;77.60
18008;DHT22;9129;50.870;4.312;2022-07-15T15:54:04;26.10;77.80
18008;DHT22;9129;50.870;4.312;2022-07-15T15:56:30;26.10;77.20
18008;DHT22;9129;50.870;4.312;2022-07-15T15:58:56;26.20;77.60
18008;DHT22;9129;50.870;4.312;2022-07-15T16:01:21;26.20;77.10
18008;DHT22;9129;50.870;4.312;2022-07-15T16:03:49;26.20;77.10
18008;DHT22;9129;50.870;4.312;2022-07-15T16:06:15;26.30;79.10
18008;DHT22;9129;50.870;4.312;2022-07-15T16:08:41;26.40;79.40
18008;DHT22;9129;50.870;4.312;2022-07-15T16:11:07;26.40;78.70
18008;DHT22;9129;50.870;4.312;2022-07-15T16:13:33;26.30;79.10
18008;DHT22;9129;50.870;4.312;2022-07-15T16:15:59;26.10;79.00
18008;DHT22;9129;50.870;4.312;2022-07-15T16:18:24;26.00;78.60
18008;DHT22;9129;50.870;4.312;2022-07-15T16:20:50;25.90;79.00
18008;DHT22;9129;50.870;4.312;2022-07-15T16:23:16;25.80;79.70
18008;DHT22;9129;50.870;4.312;2022-07-15T16:25:42;25.60;80.10
18008;DHT22;9129;50.870;4.312;2022-07-15T16:28:09;25.50;82.30
18008;DHT22;9129;50.870;4.312;2022-07-15T16:30:37;25.40;81.80